Avioradar koristi kolačiće da bi Vam omogućio jednostavnije i ugodnije korištenje stranice. 

AVIORADAR - Hrvatski zrakoplovni portal

METAR & TAF

[Source: ADDS]
METAR
LDZA 170730Z 29004KT 230V340 CAVOK 21/17 Q1018 BECMG 03008KT =
COR LDZA 170528Z 1706/1806 03008KT 9999 SCT045 TX25/1712Z TN16/1803Z PROB30 TEMPO 1706/1710 25006KT RA PROB30 TEMPO 1715/1719 TSRA FEW030CB BKN040 PROB30 TEMPO 1722/1806 TSRA FEW025CB SCT040 LDSP 170730Z 11006KT 080V140 CAVOK 29/15 Q1013 NOSIG =
LDSP 170525Z 1706/1806 11006KT CAVOK TX30/1712Z TN22/1803Z TEMPO 1711/1716 23008KT PROB30 TEMPO 1712/1715 TS FEW050CB LDDU 170730Z 14005KT 060V200 CAVOK 27/16 Q1014 NOSIG =
LDDU 170525Z 1706/1806 03008KT CAVOK TX28/1714Z TN23/1804Z BECMG 1707/1709 16010KT PROB30 TEMPO 1712/1718 03015KT -TSRA FEW045CB SCT050 BECMG 1717/1719 08005KT LDPL 170730Z 08018KT CAVOK 26/15 Q1015 NOSIG =
LDPL 170525Z 1706/1806 06015KT CAVOK TX27/1713Z TN22/1803Z BECMG 1720/1722 07007KT LDZD 170730Z VRB03KT CAVOK 28/14 Q1014 BECMG 06008KT =
LDZD 170525Z 1706/1806 06008KT CAVOK TX31/1713Z TN18/1802Z PROB40 TEMPO 1706/1716 04012KT LDRI 170730Z VRB04KT CAVOK 25/14 Q1016 =
LDRI 170525Z 1706/1806 06010KT CAVOK TX27/1714Z TN22/1804Z TEMPO 1706/1716 06018G32KT PROB40 TEMPO 1706/1800 VRB10KT PROB30 TEMPO 1716/1800 06015G25KT BECMG 1717/1719 04005KT LDOS 170730Z 28004KT 230V330 9999 FEW013 SCT030 21/18 Q1018 =
LDOS 170525Z 1706/1806 30006KT 9999 FEW010 SCT030 TX27/1714Z TN19/1801Z PROB40 TEMPO 1711/1722 32015KT 3000 TSRA SCT010 SCT020CB BKN035 PROB30 TEMPO 1722/1802 TSRA FEW020CB BKN035
TAF
COR LDZA 170528Z 1706/1806 03008KT 9999 SCT045 TX25/1712Z TN16/1803Z PROB30 TEMPO 1706/1710 25006KT RA PROB30 TEMPO 1715/1719 TSRA FEW030CB BKN040 PROB30 TEMPO 1722/1806 TSRA FEW025CB SCT040 =
LDSP 170525Z 1706/1806 11006KT CAVOK TX30/1712Z TN22/1803Z TEMPO 1711/1716 23008KT PROB30 TEMPO 1712/1715 TS FEW050CB =
LDDU 170525Z 1706/1806 03008KT CAVOK TX28/1714Z TN23/1804Z BECMG 1707/1709 16010KT PROB30 TEMPO 1712/1718 03015KT -TSRA FEW045CB SCT050 BECMG 1717/1719 08005KT =
LDPL 170525Z 1706/1806 06015KT CAVOK TX27/1713Z TN22/1803Z BECMG 1720/1722 07007KT =
LDZD 170525Z 1706/1806 06008KT CAVOK TX31/1713Z TN18/1802Z PROB40 TEMPO 1706/1716 04012KT =
LDRI 170525Z 1706/1806 06010KT CAVOK TX27/1714Z TN22/1804Z TEMPO 1706/1716 06018G32KT PROB40 TEMPO 1706/1800 VRB10KT PROB30 TEMPO 1716/1800 06015G25KT BECMG 1717/1719 04005KT =
LDOS 170525Z 1706/1806 30006KT 9999 FEW010 SCT030 TX27/1714Z TN19/1801Z PROB40 TEMPO 1711/1722 32015KT 3000 TSRA SCT010 SCT020CB BKN035 PROB30 TEMPO 1722/1802 TSRA FEW020CB BKN035 =
SR / SS: 03:05 / 18:48 UTC (Zagreb 2019-06-17)